createdAt,value
2017-11-12T00:01:27.607Z,5.75
2017-11-12T00:03:56.809Z,5.76
2017-11-12T00:06:26.026Z,5.76
2017-11-12T00:08:55.302Z,5.76
2017-11-12T00:11:24.681Z,5.74
2017-11-12T00:13:54.001Z,5.77
2017-11-12T00:16:23.198Z,5.72
2017-11-12T00:18:52.466Z,5.72
2017-11-12T00:21:22.430Z,5.74
2017-11-12T00:23:51.639Z,5.74
2017-11-12T00:26:20.847Z,5.75
2017-11-12T00:28:50.954Z,5.71
2017-11-12T00:31:20.164Z,5.68
2017-11-12T00:33:50.149Z,5.69
2017-11-12T00:36:19.356Z,5.66
2017-11-12T00:38:48.677Z,5.65
2017-11-12T00:41:17.874Z,5.67
2017-11-12T00:43:47.247Z,5.68
2017-11-12T00:46:16.430Z,5.66
2017-11-12T00:48:45.681Z,5.65
2017-11-12T00:51:16.442Z,5.61
2017-11-12T00:53:45.644Z,5.56
2017-11-12T00:56:15.584Z,5.55
2017-11-12T00:58:44.818Z,5.49
2017-11-12T01:01:14.959Z,5.52
2017-11-12T01:03:44.952Z,5.49
2017-11-12T01:06:15.677Z,5.49
2017-11-12T01:08:44.886Z,5.47
2017-11-12T01:11:14.118Z,5.45
2017-11-12T01:13:44.090Z,5.44
2017-11-12T01:16:14.861Z,5.47
2017-11-12T01:18:44.077Z,5.47
2017-11-12T01:21:13.362Z,5.46
2017-11-12T01:23:42.589Z,5.46
2017-11-12T01:26:11.794Z,5.46
2017-11-12T01:28:41.043Z,5.44
2017-11-12T01:31:10.259Z,5.48
2017-11-12T01:33:39.472Z,5.50
2017-11-12T01:36:08.681Z,5.54
2017-11-12T01:38:37.884Z,5.57
2017-11-12T01:41:07.154Z,5.62
2017-11-12T01:43:36.384Z,5.67
2017-11-12T01:46:05.765Z,5.66
2017-11-12T01:48:34.957Z,5.64
2017-11-12T01:51:04.174Z,5.62
2017-11-12T01:53:33.353Z,5.65
2017-11-12T01:56:02.557Z,5.67
2017-11-12T01:58:31.753Z,5.68
2017-11-12T02:01:00.983Z,5.68
2017-11-12T02:03:30.186Z,5.65
2017-11-12T02:06:00.941Z,5.64
2017-11-12T02:08:30.165Z,5.65
2017-11-12T02:10:59.392Z,5.63
2017-11-12T02:13:28.610Z,5.67
2017-11-12T02:15:57.867Z,5.68
2017-11-12T02:18:27.094Z,5.67
2017-11-12T02:20:56.269Z,5.64
2017-11-12T02:23:25.574Z,5.58
2017-11-12T02:25:54.897Z,5.62
2017-11-12T02:28:24.125Z,5.64
2017-11-12T02:30:54.165Z,5.67
2017-11-12T02:33:23.366Z,5.65
2017-11-12T02:35:52.553Z,5.58
2017-11-12T02:38:21.747Z,5.60
2017-11-12T02:40:50.963Z,5.63
2017-11-12T02:43:20.168Z,5.62
2017-11-12T02:45:49.383Z,5.62
2017-11-12T02:48:18.663Z,5.62
2017-11-12T02:50:47.880Z,5.63
2017-11-12T02:53:17.090Z,5.58
2017-11-12T02:55:46.295Z,5.60
2017-11-12T02:58:15.487Z,5.52
2017-11-12T03:00:45.474Z,5.47
2017-11-12T03:03:14.694Z,5.45
2017-11-12T03:05:43.883Z,5.46
2017-11-12T03:10:47.644Z,5.49
2017-11-12T03:13:16.962Z,5.53
2017-11-12T03:15:46.180Z,5.52
2017-11-12T03:18:15.396Z,5.53
2017-11-12T03:20:44.709Z,5.61
2017-11-12T03:23:13.941Z,5.60
2017-11-12T03:25:43.895Z,5.62
2017-11-12T03:28:13.073Z,5.66
2017-11-12T03:30:42.293Z,5.65
2017-11-12T03:33:11.480Z,5.63
2017-11-12T03:35:42.266Z,5.59
2017-11-12T03:38:11.472Z,5.59
2017-11-12T03:40:41.461Z,5.62
2017-11-12T03:43:10.711Z,5.62
2017-11-12T03:45:39.916Z,5.65
2017-11-12T03:48:09.129Z,5.70
2017-11-12T03:50:38.337Z,5.74
2017-11-12T03:53:07.580Z,5.76
2017-11-12T03:55:37.555Z,5.71
2017-11-12T03:58:06.845Z,5.68
2017-11-12T04:00:36.108Z,5.70
2017-11-12T04:03:05.393Z,5.69
2017-11-12T04:05:34.593Z,5.70
2017-11-12T04:08:04.639Z,5.68
2017-11-12T04:10:33.844Z,5.71
2017-11-12T04:13:03.089Z,5.68
2017-11-12T04:15:33.060Z,5.65
2017-11-12T04:18:02.300Z,5.64
2017-11-12T04:20:32.368Z,5.67
2017-11-12T04:23:01.617Z,5.73
2017-11-12T04:25:30.819Z,5.72
2017-11-12T04:28:00.879Z,5.71
2017-11-12T04:30:30.899Z,5.71
2017-11-12T04:33:00.076Z,5.72
2017-11-12T04:35:29.291Z,5.74
2017-11-12T04:37:58.487Z,5.80
2017-11-12T04:40:27.708Z,5.82
2017-11-12T04:42:57.809Z,5.78
2017-11-12T04:45:27.962Z,5.79
2017-11-12T04:47:57.188Z,5.81
2017-11-12T04:50:27.165Z,5.78
2017-11-12T04:52:56.572Z,5.80
2017-11-12T04:55:25.825Z,5.82
2017-11-12T04:57:55.817Z,5.81
2017-11-12T05:00:24.993Z,5.80
2017-11-12T05:02:54.177Z,5.82
2017-11-12T05:05:23.419Z,5.81
2017-11-12T05:07:52.777Z,5.80
2017-11-12T05:10:21.996Z,5.84
2017-11-12T05:12:51.973Z,5.81
2017-11-12T05:15:22.612Z,5.82
2017-11-12T05:17:52.827Z,5.81
2017-11-12T05:20:22.220Z,5.74
2017-11-12T05:22:51.422Z,5.78
2017-11-12T05:25:20.597Z,5.76
2017-11-12T05:27:49.807Z,5.75
2017-11-12T05:30:19.017Z,5.78
2017-11-12T05:32:48.237Z,5.75
2017-11-12T05:35:17.465Z,5.73
2017-11-12T05:37:47.453Z,5.74
2017-11-12T05:40:18.260Z,5.75
2017-11-12T05:42:47.785Z,5.73
2017-11-12T05:45:17.016Z,5.73
2017-11-12T05:47:47.138Z,5.75
2017-11-12T05:50:17.148Z,5.79
2017-11-12T05:52:47.138Z,5.80
2017-11-12T05:55:17.519Z,5.78
2017-11-12T05:57:46.900Z,5.75
2017-11-12T06:00:16.136Z,5.75
2017-11-12T06:02:45.387Z,5.75
2017-11-12T06:05:15.392Z,5.76
2017-11-12T06:07:44.578Z,5.77
2017-11-12T06:10:13.772Z,5.76
2017-11-12T06:12:43.018Z,5.75
2017-11-12T06:15:12.982Z,5.74
2017-11-12T06:17:42.178Z,5.74
2017-11-12T06:20:11.373Z,5.79
2017-11-12T06:22:40.609Z,5.84
2017-11-12T06:25:10.614Z,5.87
2017-11-12T06:27:40.594Z,5.92
2017-11-12T06:30:09.888Z,5.91
2017-11-12T06:32:39.055Z,5.93
2017-11-12T06:35:09.591Z,5.88
2017-11-12T06:37:38.780Z,5.85
2017-11-12T06:40:08.029Z,5.90
2017-11-12T06:42:37.191Z,5.89
2017-11-12T06:45:06.481Z,5.92
2017-11-12T06:47:36.412Z,5.93
2017-11-12T06:50:05.628Z,5.89
2017-11-12T06:52:34.839Z,5.93
2017-11-12T06:55:04.068Z,5.95
2017-11-12T06:57:34.028Z,5.92
2017-11-12T07:00:03.312Z,5.98
2017-11-12T07:02:32.539Z,6.06
2017-11-12T07:05:01.793Z,6.08
2017-11-12T07:07:31.155Z,6.10
2017-11-12T07:10:00.364Z,6.03
2017-11-12T07:12:30.361Z,6.06
2017-11-12T07:15:00.357Z,6.13
2017-11-12T07:17:29.628Z,6.13
2017-11-12T07:19:58.960Z,6.18
2017-11-12T07:22:28.192Z,6.20
2017-11-12T07:24:58.160Z,6.26
2017-11-12T07:27:27.470Z,6.31
2017-11-12T07:29:56.786Z,6.33
2017-11-12T07:32:26.037Z,6.34
2017-11-12T07:34:55.318Z,6.36
2017-11-12T07:37:25.481Z,6.38
2017-11-12T07:39:54.690Z,6.37
2017-11-12T07:42:23.890Z,6.38
2017-11-12T07:44:54.644Z,6.42
2017-11-12T07:47:25.101Z,6.48
2017-11-12T07:49:54.307Z,6.51
2017-11-12T07:52:23.556Z,6.52
2017-11-12T07:54:52.769Z,6.50
2017-11-12T07:57:22.776Z,6.54
2017-11-12T07:59:52.893Z,6.58
2017-11-12T08:02:22.062Z,6.57
2017-11-12T08:04:51.289Z,6.53
2017-11-12T08:07:20.505Z,6.58
2017-11-12T08:09:50.479Z,6.60
2017-11-12T08:12:19.711Z,6.62
2017-11-12T08:14:48.951Z,6.63
2017-11-12T08:17:18.180Z,6.61
2017-11-12T08:19:47.405Z,6.58
2017-11-12T08:22:17.388Z,6.60
2017-11-12T08:24:46.643Z,6.66
2017-11-12T08:27:16.105Z,6.68
2017-11-12T08:29:45.343Z,6.73
2017-11-12T08:32:15.309Z,6.74
2017-11-12T08:34:44.617Z,6.77
2017-11-12T08:37:13.897Z,6.78
2017-11-12T08:39:43.105Z,6.77
2017-11-12T08:42:12.317Z,6.74
2017-11-12T08:44:42.594Z,6.74
2017-11-12T08:47:11.797Z,6.74
2017-11-12T08:49:41.088Z,6.73
2017-11-12T08:52:10.253Z,6.72
2017-11-12T08:54:39.534Z,6.76
2017-11-12T08:57:08.827Z,6.74
2017-11-12T08:59:39.541Z,6.78
2017-11-12T09:02:08.854Z,6.85
2017-11-12T09:04:39.569Z,6.88
2017-11-12T09:07:08.892Z,6.89
2017-11-12T09:09:38.111Z,6.95
2017-11-12T09:12:08.101Z,6.95
2017-11-12T09:14:37.331Z,6.95
2017-11-12T09:17:06.576Z,6.99
2017-11-12T09:19:35.837Z,7.08
2017-11-12T09:22:05.061Z,7.07
2017-11-12T09:24:34.282Z,7.05
2017-11-12T09:27:03.479Z,7.02
2017-11-12T09:29:32.721Z,7.04
2017-11-12T09:32:02.717Z,6.81
2017-11-12T09:34:32.692Z,6.72
2017-11-12T09:37:02.070Z,6.73
2017-11-12T09:39:31.309Z,6.61
2017-11-12T09:42:01.309Z,6.66
2017-11-12T09:44:30.528Z,6.66
2017-11-12T09:46:59.746Z,6.69
2017-11-12T09:49:28.967Z,6.64
2017-11-12T09:51:58.202Z,6.69
2017-11-12T09:54:27.386Z,6.72
2017-11-12T09:56:56.646Z,6.78
2017-11-12T09:59:26.614Z,6.80
2017-11-12T10:01:55.828Z,6.83
2017-11-12T10:04:25.247Z,6.89
2017-11-12T10:06:55.246Z,6.93
2017-11-12T10:09:25.132Z,6.90
2017-11-12T10:11:54.320Z,6.94
2017-11-12T10:14:23.521Z,7.01
2017-11-12T10:16:52.809Z,6.93
2017-11-12T10:19:22.021Z,6.86
2017-11-12T10:21:51.214Z,6.84
2017-11-12T10:24:20.415Z,6.84
2017-11-12T10:26:49.637Z,6.81
2017-11-12T10:29:18.853Z,6.80
2017-11-12T10:31:48.059Z,6.73
2017-11-12T10:34:17.226Z,6.73
2017-11-12T10:36:46.451Z,6.76
2017-11-12T10:39:16.448Z,6.76
2017-11-12T10:41:47.215Z,6.70
2017-11-12T10:44:17.197Z,6.69
2017-11-12T10:46:47.930Z,6.70
2017-11-12T10:49:17.150Z,6.70
2017-11-12T10:51:47.126Z,6.70
2017-11-12T10:54:16.347Z,6.72
2017-11-12T10:56:47.055Z,6.79
2017-11-12T10:59:17.850Z,6.85
2017-11-12T11:01:47.147Z,6.85
2017-11-12T11:04:16.383Z,6.87
2017-11-12T11:06:45.594Z,6.89
2017-11-12T11:09:14.813Z,6.94
2017-11-12T11:11:44.796Z,6.95
2017-11-12T11:14:14.010Z,6.96
2017-11-12T11:16:43.239Z,6.97
2017-11-12T11:19:13.261Z,6.93
2017-11-12T11:21:43.230Z,6.81
2017-11-12T11:24:12.432Z,6.78
2017-11-12T11:26:41.646Z,6.82
2017-11-12T11:29:10.861Z,6.85
2017-11-12T11:31:40.892Z,6.87
2017-11-12T11:34:10.114Z,6.90
2017-11-12T11:36:39.393Z,6.95
2017-11-12T11:39:08.657Z,6.98
2017-11-12T11:41:38.624Z,6.99
2017-11-12T11:44:07.845Z,6.99
2017-11-12T11:46:37.085Z,6.88
2017-11-12T11:49:07.090Z,6.92
2017-11-12T11:51:36.288Z,6.98
2017-11-12T11:54:05.497Z,6.95
2017-11-12T11:56:35.466Z,6.75
2017-11-12T11:59:04.671Z,6.64
2017-11-12T12:01:35.438Z,6.56
2017-11-12T12:04:04.657Z,6.49
2017-11-12T12:06:33.945Z,6.51
2017-11-12T12:09:03.914Z,6.54
2017-11-12T12:11:33.153Z,6.47
2017-11-12T12:14:03.128Z,6.45
2017-11-12T12:16:32.597Z,6.56
2017-11-12T12:19:01.790Z,6.70
2017-11-12T12:21:31.093Z,6.73
2017-11-12T12:24:01.071Z,6.78
2017-11-12T12:26:30.622Z,6.77
2017-11-12T12:29:00.536Z,6.83
2017-11-12T12:31:29.809Z,6.94
2017-11-12T12:33:59.034Z,7.03
2017-11-12T12:36:28.255Z,7.04
2017-11-12T12:38:57.499Z,7.05
2017-11-12T12:41:27.453Z,7.05
2017-11-12T12:43:56.704Z,7.04
2017-11-12T12:46:25.918Z,6.98
2017-11-12T12:48:55.146Z,6.97
2017-11-12T12:51:24.377Z,6.98
2017-11-12T12:53:53.614Z,6.99
2017-11-12T12:56:22.813Z,7.04
2017-11-12T12:58:52.084Z,7.01
2017-11-12T13:01:22.117Z,6.96
2017-11-12T13:03:51.953Z,7.02
2017-11-12T13:06:21.175Z,7.06
2017-11-12T13:08:50.412Z,7.07
2017-11-12T13:11:20.390Z,7.06
2017-11-12T13:13:50.422Z,7.09
2017-11-12T13:16:19.616Z,6.99
2017-11-12T13:18:48.846Z,6.94
2017-11-12T13:21:18.868Z,7.02
2017-11-12T13:23:48.857Z,7.08
2017-11-12T13:26:18.065Z,7.16
2017-11-12T13:28:48.117Z,7.10
2017-11-12T13:31:17.429Z,7.13
2017-11-12T13:33:46.649Z,7.11
2017-11-12T13:36:15.879Z,7.10
2017-11-12T13:38:45.879Z,7.18
2017-11-12T13:41:15.105Z,7.18
2017-11-12T13:43:45.074Z,7.16
2017-11-12T13:46:14.316Z,7.18
2017-11-12T13:48:43.584Z,7.19
2017-11-12T13:51:14.316Z,7.15
2017-11-12T13:53:43.589Z,7.14
2017-11-12T13:56:12.849Z,7.21
2017-11-12T13:58:42.921Z,7.23
2017-11-12T14:01:12.211Z,7.29
2017-11-12T14:03:41.429Z,7.28
2017-11-12T14:06:11.447Z,7.33
2017-11-12T14:08:40.671Z,7.40
2017-11-12T14:11:10.661Z,7.46
2017-11-12T14:13:43.545Z,7.53
2017-11-12T14:16:12.824Z,7.43
2017-11-12T14:31:42.841Z,6.82
2017-11-12T14:34:12.287Z,6.89
2017-11-12T14:36:41.625Z,6.92
2017-11-12T14:39:10.875Z,6.96
2017-11-12T14:41:40.868Z,6.94
2017-11-12T14:44:10.078Z,6.85
2017-11-12T14:46:40.051Z,6.84
2017-11-12T14:49:09.330Z,6.91
2017-11-12T14:51:38.544Z,6.95
2017-11-12T14:54:07.765Z,6.96
2017-11-12T14:56:38.482Z,6.89
2017-11-12T14:59:08.729Z,6.88
2017-11-12T15:01:38.720Z,6.68
2017-11-12T15:04:08.292Z,6.64
2017-11-12T15:06:37.519Z,6.51
2017-11-12T15:09:07.102Z,6.52
2017-11-12T15:11:36.316Z,6.52
2017-11-12T15:14:05.541Z,6.66
2017-11-12T15:16:34.755Z,6.67
2017-11-12T15:19:04.762Z,6.67
2017-11-12T15:21:35.560Z,6.70
2017-11-12T15:24:04.791Z,6.58
2017-11-12T15:26:34.073Z,6.65
2017-11-12T15:29:03.331Z,6.59
2017-11-12T15:31:32.537Z,6.71
2017-11-12T15:34:01.925Z,6.76
2017-11-12T15:36:31.186Z,6.70
2017-11-12T15:39:00.403Z,6.74
2017-11-12T15:41:29.659Z,6.68
2017-11-12T15:43:58.863Z,6.56
2017-11-12T15:46:28.082Z,6.40
2017-11-12T15:48:58.045Z,6.40
2017-11-12T15:51:27.298Z,6.48
2017-11-12T15:53:56.521Z,6.47
2017-11-12T15:56:25.793Z,6.50
2017-11-12T15:58:55.802Z,6.51
2017-11-12T16:01:25.126Z,6.52
2017-11-12T16:03:54.462Z,6.47
2017-11-12T16:06:23.712Z,6.52
2017-11-12T16:08:53.716Z,6.51
2017-11-12T16:11:22.934Z,6.50
2017-11-12T16:26:57.204Z,5.79
2017-11-12T16:29:26.388Z,5.78
2017-11-12T16:31:55.977Z,5.70
2017-11-12T16:34:25.302Z,5.70
2017-11-12T16:49:59.582Z,5.50
2017-11-12T16:52:28.867Z,5.61
2017-11-12T16:55:01.086Z,5.66
2017-11-12T16:57:30.344Z,5.60
2017-11-12T16:59:59.573Z,5.58
2017-11-12T17:02:30.297Z,5.58
2017-11-12T17:04:59.579Z,5.68
2017-11-12T17:07:28.944Z,5.69
2017-11-12T17:10:00.442Z,5.59
2017-11-12T17:12:29.661Z,5.52
2017-11-12T17:15:00.458Z,5.49
2017-11-12T17:17:29.699Z,5.46
2017-11-12T17:19:58.914Z,5.45
2017-11-12T17:22:28.926Z,5.56
2017-11-12T17:24:59.009Z,5.50
2017-11-12T17:27:28.285Z,5.49
2017-11-12T17:29:57.476Z,5.56
2017-11-12T17:32:26.838Z,5.55
2017-11-12T17:34:56.061Z,5.50
2017-11-12T17:37:25.388Z,5.51
2017-11-12T17:39:54.785Z,5.50
2017-11-12T17:42:24.212Z,5.50
2017-11-12T17:44:53.496Z,5.51
2017-11-12T17:47:22.728Z,5.59
2017-11-12T17:49:52.750Z,5.59
2017-11-12T17:52:22.785Z,5.54
2017-11-12T17:54:52.049Z,5.52
2017-11-12T17:57:21.297Z,5.54
2017-11-12T17:59:50.518Z,5.60
2017-11-12T18:02:21.244Z,5.68
2017-11-12T18:04:50.494Z,5.60
2017-11-12T18:07:20.554Z,5.59
2017-11-12T18:09:50.760Z,5.55
2017-11-12T18:12:20.764Z,5.64
2017-11-12T18:14:50.742Z,5.64
2017-11-12T18:17:20.235Z,5.73
2017-11-12T18:19:49.709Z,5.64
2017-11-12T18:22:18.997Z,5.62
2017-11-12T18:24:48.237Z,5.61
2017-11-12T18:27:17.821Z,5.65
2017-11-12T18:29:50.429Z,5.63
2017-11-12T18:32:19.662Z,5.65
2017-11-12T18:34:48.937Z,5.62
2017-11-12T18:37:18.586Z,5.62
2017-11-12T18:39:48.097Z,5.58
2017-11-12T18:42:18.053Z,5.55
2017-11-12T18:44:48.453Z,5.57
2017-11-12T18:47:18.442Z,5.59
2017-11-12T18:49:47.690Z,5.66
2017-11-12T18:52:16.922Z,5.63
2017-11-12T18:54:47.704Z,5.72
2017-11-12T18:57:20.568Z,5.67
2017-11-12T19:13:17.504Z,5.76
2017-11-12T19:15:47.606Z,5.81
2017-11-12T19:18:18.408Z,5.85
2017-11-12T19:33:48.041Z,5.63
2017-11-12T19:36:18.957Z,5.72
2017-11-12T19:38:48.961Z,5.71
2017-11-12T19:41:19.838Z,5.79
2017-11-12T19:43:49.420Z,5.85
2017-11-12T19:46:18.724Z,5.85
2017-11-12T19:48:48.813Z,5.92
2017-11-12T20:04:24.452Z,5.74
2017-11-12T20:06:55.123Z,5.72
2017-11-12T20:09:24.352Z,5.74
2017-11-12T20:11:55.353Z,5.73
2017-11-12T20:14:24.955Z,5.69
2017-11-12T20:16:54.251Z,5.75
2017-11-12T20:19:24.482Z,5.81
2017-11-12T20:21:53.746Z,5.87
2017-11-12T20:24:24.066Z,5.80
2017-11-12T20:26:54.561Z,5.83
2017-11-12T20:29:23.848Z,5.82
2017-11-12T20:31:53.498Z,5.77
2017-11-12T20:34:23.900Z,5.75
2017-11-12T20:36:54.017Z,5.75
2017-11-12T20:52:28.272Z,5.49
2017-11-12T20:54:57.507Z,5.50
2017-11-12T20:57:26.857Z,5.54
2017-11-12T20:59:57.099Z,5.54
2017-11-12T21:02:26.412Z,5.59
2017-11-12T21:04:58.490Z,5.69
2017-11-12T21:07:27.800Z,5.75
2017-11-12T21:09:58.282Z,5.79
2017-11-12T21:25:32.647Z,5.56
2017-11-12T21:28:02.964Z,5.54
2017-11-12T21:30:34.875Z,5.56
2017-11-12T21:33:14.030Z,5.68
2017-11-12T21:35:55.080Z,5.70
2017-11-12T21:38:24.324Z,5.67
2017-11-12T21:40:53.626Z,5.68
2017-11-12T21:56:27.901Z,5.39
2017-11-12T21:58:57.144Z,5.41
2017-11-12T22:01:27.179Z,5.50
2017-11-12T22:03:56.646Z,5.67
2017-11-12T22:06:25.834Z,5.72
2017-11-12T22:08:55.053Z,5.70
2017-11-12T22:11:25.048Z,5.69
2017-11-12T22:13:54.297Z,5.72
2017-11-12T22:16:23.485Z,5.75
2017-11-12T22:18:52.710Z,5.78
2017-11-12T22:21:21.989Z,5.87
2017-11-12T22:23:51.200Z,5.93
2017-11-12T22:26:20.437Z,5.97
2017-11-12T22:28:51.330Z,6.02
2017-11-12T22:31:20.532Z,5.96
2017-11-12T22:33:49.935Z,5.98
2017-11-12T22:36:19.131Z,5.89
2017-11-12T22:38:48.352Z,5.91
2017-11-12T22:41:17.583Z,5.90
2017-11-12T22:43:46.805Z,5.89
2017-11-12T22:46:16.062Z,5.88
2017-11-12T22:48:45.297Z,5.92
2017-11-12T22:51:15.281Z,5.86
2017-11-12T22:53:44.497Z,5.85
2017-11-12T22:56:14.560Z,5.81
2017-11-12T22:58:43.776Z,5.80
2017-11-12T23:01:13.114Z,5.79
2017-11-12T23:03:42.316Z,5.80
2017-11-12T23:06:11.569Z,5.81
2017-11-12T23:08:40.776Z,5.74
2017-11-12T23:11:10.015Z,5.72
2017-11-12T23:13:39.238Z,5.78
2017-11-12T23:16:08.412Z,5.74
2017-11-12T23:18:37.612Z,5.71
2017-11-12T23:21:06.850Z,5.73
2017-11-12T23:23:36.046Z,5.74
2017-11-12T23:26:05.305Z,5.78
2017-11-12T23:28:34.541Z,5.71
2017-11-12T23:31:03.725Z,5.68
2017-11-12T23:33:32.952Z,5.76
2017-11-12T23:36:02.149Z,5.82
2017-11-12T23:38:31.364Z,5.78
2017-11-12T23:41:01.334Z,5.82
2017-11-12T23:43:30.601Z,5.89
2017-11-12T23:45:59.816Z,5.83
2017-11-12T23:48:29.209Z,5.74
2017-11-12T23:50:58.432Z,5.81
2017-11-12T23:53:27.632Z,5.73
2017-11-12T23:55:57.054Z,5.75
2017-11-12T23:58:26.378Z,5.75
